createdAt,value
2023-04-18T00:01:29.809Z,11.51
2023-04-18T00:03:58.066Z,11.51
2023-04-18T00:06:26.692Z,11.51
2023-04-18T00:08:54.720Z,11.50
2023-04-18T00:11:22.993Z,11.50
2023-04-18T00:13:51.009Z,11.49
2023-04-18T00:16:19.099Z,11.49
2023-04-18T00:18:48.196Z,11.47
2023-04-18T00:21:16.848Z,11.45
2023-04-18T00:23:46.199Z,11.45
2023-04-18T00:26:14.304Z,11.44
2023-04-18T00:28:42.846Z,11.44
2023-04-18T00:31:11.963Z,11.42
2023-04-18T00:33:39.961Z,11.40
2023-04-18T00:36:08.207Z,11.38
2023-04-18T00:38:36.469Z,11.37
2023-04-18T00:41:04.528Z,11.35
2023-04-18T00:43:35.070Z,11.31
2023-04-18T00:46:03.457Z,11.27
2023-04-18T00:48:31.608Z,11.23
2023-04-18T00:51:00.429Z,11.19
2023-04-18T00:53:28.807Z,11.15
2023-04-18T00:55:56.979Z,11.12
2023-04-18T00:58:25.719Z,11.09
2023-04-18T01:00:54.735Z,11.05
2023-04-18T01:03:24.183Z,11.00
2023-04-18T01:05:53.881Z,10.98
2023-04-18T01:08:22.016Z,10.89
2023-04-18T01:10:50.014Z,10.83
2023-04-18T01:13:19.685Z,10.81
2023-04-18T01:15:49.275Z,10.77
2023-04-18T01:18:17.914Z,10.75
2023-04-18T01:20:49.829Z,10.72
2023-04-18T01:23:18.303Z,10.69
2023-04-18T01:25:47.014Z,10.67
2023-04-18T01:28:15.877Z,10.67
2023-04-18T01:30:44.033Z,10.67
2023-04-18T01:33:12.315Z,10.67
2023-04-18T01:35:40.852Z,10.68
2023-04-18T01:38:08.908Z,10.67
2023-04-18T01:40:36.902Z,10.66
2023-04-18T01:43:05.281Z,10.63
2023-04-18T01:45:33.332Z,10.59
2023-04-18T01:48:03.401Z,10.55
2023-04-18T01:50:31.541Z,10.53
2023-04-18T01:52:59.600Z,10.51
2023-04-18T01:55:27.705Z,10.48
2023-04-18T01:57:56.137Z,10.46
2023-04-18T02:00:24.653Z,10.45
2023-04-18T02:02:52.890Z,10.45
2023-04-18T02:05:22.029Z,10.44
2023-04-18T02:07:50.387Z,10.44
2023-04-18T02:10:19.548Z,10.43
2023-04-18T02:12:47.841Z,10.42
2023-04-18T02:15:15.875Z,10.43
2023-04-18T02:17:43.979Z,10.43
2023-04-18T02:20:13.403Z,10.43
2023-04-18T02:22:41.877Z,10.41
2023-04-18T02:25:11.406Z,10.40
2023-04-18T02:27:40.398Z,10.39
2023-04-18T02:30:09.386Z,10.37
2023-04-18T02:32:37.862Z,10.37
2023-04-18T02:35:06.549Z,10.37
2023-04-18T02:37:34.716Z,10.35
2023-04-18T02:40:05.134Z,10.33
2023-04-18T02:42:33.499Z,10.30
2023-04-18T02:45:02.684Z,10.27
2023-04-18T02:47:37.596Z,10.25
2023-04-18T02:50:11.811Z,10.24
2023-04-18T02:52:40.073Z,10.24
2023-04-18T02:55:09.549Z,10.24
2023-04-18T02:57:40.214Z,10.24
2023-04-18T03:00:43.542Z,10.23
2023-04-18T03:03:30.916Z,10.21
2023-04-18T03:06:14.601Z,10.18
2023-04-18T03:08:44.482Z,10.16
2023-04-18T03:11:12.666Z,10.15
2023-04-18T03:13:41.073Z,10.15
2023-04-18T03:16:09.691Z,10.14
2023-04-18T03:18:38.257Z,10.13
2023-04-18T03:21:07.302Z,10.13
2023-04-18T03:23:35.759Z,10.13
2023-04-18T03:26:08.105Z,10.12
2023-04-18T03:28:38.188Z,10.13
2023-04-18T03:31:08.019Z,10.13
2023-04-18T03:33:39.938Z,10.12
2023-04-18T03:36:15.129Z,10.10
2023-04-18T03:38:46.934Z,10.09
2023-04-18T03:41:17.343Z,10.08
2023-04-18T03:43:47.297Z,10.08
2023-04-18T03:46:17.476Z,10.09
2023-04-18T03:48:47.794Z,10.09
2023-04-18T03:51:19.653Z,10.09
2023-04-18T03:53:50.011Z,10.11
2023-04-18T03:56:22.007Z,10.13
2023-04-18T03:58:55.495Z,10.13
2023-04-18T04:01:25.665Z,10.14
2023-04-18T04:03:55.706Z,10.16
2023-04-18T04:06:27.081Z,10.17
2023-04-18T04:08:57.768Z,10.18
2023-04-18T04:11:29.083Z,10.19
2023-04-18T04:14:00.656Z,10.21
2023-04-18T04:16:36.077Z,10.23
2023-04-18T04:19:06.851Z,10.24
2023-04-18T04:21:43.080Z,10.24
2023-04-18T04:24:16.661Z,10.25
2023-04-18T04:26:50.846Z,10.26
2023-04-18T04:36:33.548Z,10.24
2023-04-18T04:39:04.351Z,10.20
2023-04-18T04:41:47.480Z,10.13
2023-04-18T04:44:17.798Z,10.04
2023-04-18T04:46:48.128Z,9.96
2023-04-18T04:49:19.778Z,9.89
2023-04-18T04:51:47.953Z,9.83
2023-04-18T04:54:16.700Z,9.77
2023-04-18T04:56:45.144Z,9.71
2023-04-18T04:59:14.382Z,9.68
2023-04-18T05:01:47.143Z,9.64
2023-04-18T05:04:17.372Z,9.58
2023-04-18T05:06:46.321Z,9.55
2023-04-18T05:09:15.314Z,9.54
2023-04-18T05:11:44.095Z,9.52
2023-04-18T05:14:13.274Z,9.51
2023-04-18T05:16:48.837Z,9.50
2023-04-18T05:19:22.040Z,9.48
2023-04-18T05:21:50.145Z,9.47
2023-04-18T05:24:19.121Z,9.46
2023-04-18T05:26:47.270Z,9.45
2023-04-18T05:29:15.492Z,9.43
2023-04-18T05:31:44.033Z,9.42
2023-04-18T05:34:12.429Z,9.41
2023-04-18T05:36:41.324Z,9.40
2023-04-18T05:39:09.680Z,9.38
2023-04-18T05:41:37.954Z,9.37
2023-04-18T05:44:06.545Z,9.34
2023-04-18T05:46:35.029Z,9.32
2023-04-18T05:49:04.019Z,9.32
2023-04-18T05:51:32.274Z,9.32
2023-04-18T05:54:06.193Z,9.35
2023-04-18T05:56:36.360Z,9.36
2023-04-18T05:59:14.195Z,9.37
2023-04-18T06:01:43.808Z,9.39
2023-04-18T06:04:12.159Z,9.39
2023-04-18T06:06:41.200Z,9.42
2023-04-18T06:09:09.507Z,9.44
2023-04-18T06:11:37.664Z,9.46
2023-04-18T06:14:05.965Z,9.47
2023-04-18T06:16:36.678Z,9.48
2023-04-18T06:19:05.460Z,9.51
2023-04-18T06:21:33.534Z,9.53
2023-04-18T06:24:01.684Z,9.54
2023-04-18T06:26:32.106Z,9.55
2023-04-18T06:29:00.313Z,9.58
2023-04-18T06:31:28.422Z,9.61
2023-04-18T06:33:56.907Z,9.64
2023-04-18T06:36:26.948Z,9.67
2023-04-18T06:38:55.012Z,9.70
2023-04-18T06:41:23.011Z,9.68
2023-04-18T06:44:02.764Z,9.66
2023-04-18T06:46:32.947Z,9.65
2023-04-18T06:49:01.009Z,9.63
2023-04-18T06:51:32.063Z,9.59
2023-04-18T06:54:02.182Z,9.55
2023-04-18T06:56:33.474Z,9.49
2023-04-18T06:59:03.110Z,9.44
2023-04-18T07:01:33.218Z,9.41
2023-04-18T07:04:01.435Z,9.37
2023-04-18T07:09:26.684Z,9.32
2023-04-18T07:11:55.148Z,9.34
2023-04-18T07:14:24.107Z,9.36
2023-04-18T07:16:52.364Z,9.38
2023-04-18T07:19:20.526Z,9.42
2023-04-18T07:21:48.679Z,9.48
2023-04-18T07:24:16.908Z,9.54
2023-04-18T07:26:45.349Z,9.59
2023-04-18T07:29:14.456Z,9.63
2023-04-18T07:31:42.975Z,9.67
2023-04-18T07:34:11.599Z,9.72
2023-04-18T07:36:40.802Z,9.77
2023-04-18T07:39:09.095Z,9.83
2023-04-18T07:41:37.290Z,9.87
2023-04-18T07:44:05.836Z,9.87
2023-04-18T07:46:34.108Z,9.86
2023-04-18T07:49:02.484Z,9.87
2023-04-18T07:51:35.072Z,9.90
2023-04-18T07:54:03.930Z,9.93
2023-04-18T07:56:58.128Z,9.96
2023-04-18T07:59:27.388Z,10.00
2023-04-18T08:01:55.503Z,10.07
2023-04-18T08:04:24.153Z,10.17
2023-04-18T08:06:52.678Z,10.30
2023-04-18T08:09:21.915Z,10.46
2023-04-18T08:11:50.037Z,10.62
2023-04-18T08:14:18.104Z,10.81
2023-04-18T08:16:46.397Z,11.00
2023-04-18T08:19:15.333Z,11.15
2023-04-18T08:21:43.876Z,11.27
2023-04-18T08:24:12.294Z,11.37
2023-04-18T08:26:40.471Z,11.45
2023-04-18T08:29:08.916Z,11.51
2023-04-18T08:31:40.219Z,11.57
2023-04-18T08:34:08.455Z,11.67
2023-04-18T08:36:36.850Z,11.76
2023-04-18T08:39:05.242Z,11.82
2023-04-18T08:41:36.197Z,11.89
2023-04-18T08:44:04.210Z,11.99
2023-04-18T08:46:36.181Z,12.07
2023-04-18T08:49:05.106Z,12.18
2023-04-18T08:51:34.108Z,12.27
2023-04-18T08:54:04.790Z,12.39
2023-04-18T08:56:33.333Z,12.48
2023-04-18T08:59:01.308Z,12.50
2023-04-18T09:02:06.542Z,12.51
2023-04-18T09:04:35.919Z,12.55
2023-04-18T09:07:07.580Z,12.61
2023-04-18T09:09:52.713Z,12.69
2023-04-18T09:12:23.233Z,12.80
2023-04-18T09:14:58.411Z,12.92
2023-04-18T09:17:37.879Z,13.04
2023-04-18T09:20:07.125Z,13.25
2023-04-18T09:22:52.381Z,13.54
2023-04-18T09:25:46.551Z,13.87
2023-04-18T09:28:23.375Z,14.23
2023-04-18T09:30:52.550Z,14.58
2023-04-18T09:33:29.332Z,14.87
2023-04-18T09:36:18.781Z,15.17
2023-04-18T09:38:47.706Z,15.50
2023-04-18T09:41:19.839Z,15.75
2023-04-18T09:43:49.041Z,15.91
2023-04-18T09:46:22.735Z,16.05
2023-04-18T09:48:50.944Z,16.20
2023-04-18T09:51:18.950Z,16.37
2023-04-18T09:53:50.400Z,16.54
2023-04-18T09:56:28.661Z,16.67
2023-04-18T09:59:08.801Z,16.78
2023-04-18T10:01:37.136Z,16.85
2023-04-18T10:04:06.935Z,17.00
2023-04-18T10:06:38.581Z,17.21
2023-04-18T10:09:07.762Z,17.38
2023-04-18T10:11:36.519Z,17.51
2023-04-18T10:14:07.112Z,17.60
2023-04-18T10:16:36.435Z,17.73
2023-04-18T10:19:44.329Z,17.83
2023-04-18T10:22:13.375Z,17.96
2023-04-18T10:24:49.998Z,18.05
2023-04-18T10:27:19.670Z,18.00
2023-04-18T10:29:54.546Z,17.90
2023-04-18T10:32:23.540Z,17.88
2023-04-18T10:34:53.925Z,17.91
2023-04-18T10:37:22.193Z,18.05
2023-04-18T10:39:57.370Z,18.19
2023-04-18T10:42:47.491Z,18.29
2023-04-18T10:45:22.452Z,18.47
2023-04-18T10:47:50.928Z,18.55
2023-04-18T10:50:19.153Z,18.56
2023-04-18T10:52:47.134Z,18.69
2023-04-18T10:55:23.102Z,18.88
2023-04-18T10:57:51.605Z,19.01
2023-04-18T11:00:21.855Z,18.97
2023-04-18T11:02:57.832Z,18.87
2023-04-18T11:05:27.517Z,18.92
2023-04-18T11:07:55.703Z,19.11
2023-04-18T11:10:26.624Z,19.30
2023-04-18T11:12:54.942Z,19.43
2023-04-18T11:15:24.304Z,19.48
2023-04-18T11:18:03.074Z,19.34
2023-04-18T11:20:47.545Z,19.25
2023-04-18T11:23:17.454Z,19.32
2023-04-18T11:25:45.482Z,19.40
2023-04-18T11:28:13.752Z,19.51
2023-04-18T11:30:42.015Z,19.66
2023-04-18T11:33:11.880Z,19.85
2023-04-18T11:35:44.701Z,20.00
2023-04-18T11:38:14.639Z,20.21
2023-04-18T11:40:49.860Z,20.41
2023-04-18T11:43:25.213Z,20.47
2023-04-18T11:45:57.920Z,20.46
2023-04-18T11:48:40.276Z,20.57
2023-04-18T11:51:09.826Z,20.73
2023-04-18T11:53:38.999Z,20.82
2023-04-18T11:56:07.690Z,20.71
2023-04-18T11:58:36.562Z,20.44
2023-04-18T12:01:17.999Z,20.18
2023-04-18T12:04:08.176Z,19.83
2023-04-18T12:06:51.150Z,19.48
2023-04-18T12:09:21.429Z,19.22
2023-04-18T12:11:59.682Z,19.01
2023-04-18T12:14:30.349Z,18.93
2023-04-18T12:16:58.368Z,18.88
2023-04-18T12:19:28.180Z,18.80
2023-04-18T12:22:09.920Z,18.76
2023-04-18T12:24:38.277Z,18.76
2023-04-18T12:27:06.620Z,18.78
2023-04-18T12:29:35.371Z,18.76
2023-04-18T12:32:03.609Z,18.66
2023-04-18T12:34:31.922Z,18.58
2023-04-18T12:37:00.396Z,18.51
2023-04-18T12:39:28.774Z,18.45
2023-04-18T12:41:57.096Z,18.44
2023-04-18T12:44:25.753Z,18.42
2023-04-18T12:46:54.108Z,18.33
2023-04-18T12:49:22.825Z,18.22
2023-04-18T12:51:51.067Z,18.19
2023-04-18T12:54:19.960Z,18.31
2023-04-18T12:56:47.987Z,18.55
2023-04-18T12:59:16.509Z,18.77
2023-04-18T13:01:44.835Z,18.99
2023-04-18T13:04:13.532Z,19.31
2023-04-18T13:06:41.961Z,19.63
2023-04-18T13:09:10.558Z,19.84
2023-04-18T13:11:38.730Z,20.10
2023-04-18T13:14:07.162Z,20.43
2023-04-18T13:16:35.455Z,20.73
2023-04-18T13:19:03.838Z,20.96
2023-04-18T13:21:32.177Z,21.09
2023-04-18T13:24:01.029Z,21.11
2023-04-18T13:26:30.106Z,21.11
2023-04-18T13:28:58.171Z,21.13
2023-04-18T13:31:26.152Z,21.32
2023-04-18T13:33:57.963Z,21.44
2023-04-18T13:36:28.625Z,21.58
2023-04-18T13:38:57.264Z,21.81
2023-04-18T13:41:25.296Z,21.95
2023-04-18T13:43:53.872Z,21.91
2023-04-18T13:46:23.461Z,21.68
2023-04-18T13:48:51.973Z,21.41
2023-04-18T13:51:20.453Z,21.19
2023-04-18T13:53:49.178Z,20.96
2023-04-18T13:56:24.156Z,20.67
2023-04-18T13:58:52.828Z,20.60
2023-04-18T14:01:21.143Z,20.89
2023-04-18T14:03:52.680Z,21.31
2023-04-18T14:06:21.048Z,21.66
2023-04-18T14:08:51.281Z,21.71
2023-04-18T14:11:20.312Z,21.64
2023-04-18T14:13:48.945Z,21.39
2023-04-18T14:16:19.352Z,21.06
2023-04-18T14:18:47.803Z,20.77
2023-04-18T14:21:16.416Z,20.49
2023-04-18T14:23:44.724Z,20.23
2023-04-18T14:26:13.228Z,19.98
2023-04-18T14:28:42.321Z,19.75
2023-04-18T14:31:11.415Z,19.59
2023-04-18T14:33:40.222Z,19.49
2023-04-18T14:36:09.424Z,19.61
2023-04-18T14:38:37.576Z,19.95
2023-04-18T14:41:05.866Z,20.32
2023-04-18T14:43:33.818Z,20.61
2023-04-18T14:46:02.228Z,20.73
2023-04-18T14:48:30.479Z,20.79
2023-04-18T14:50:59.357Z,20.83
2023-04-18T14:53:27.885Z,20.93
2023-04-18T14:55:56.788Z,21.01
2023-04-18T14:58:24.919Z,21.16
2023-04-18T15:00:52.994Z,21.27
2023-04-18T15:03:21.923Z,21.27
2023-04-18T15:05:50.262Z,21.23
2023-04-18T15:08:18.334Z,21.16
2023-04-18T15:10:47.651Z,21.07
2023-04-18T15:13:16.203Z,20.93
2023-04-18T15:15:51.729Z,20.74
2023-04-18T15:18:20.256Z,20.51
2023-04-18T15:20:48.657Z,20.30
2023-04-18T15:23:17.077Z,20.08
2023-04-18T15:25:45.897Z,19.89
2023-04-18T15:28:14.378Z,19.70
2023-04-18T15:30:42.663Z,19.54
2023-04-18T15:33:11.992Z,19.36
2023-04-18T15:35:40.029Z,19.17
2023-04-18T15:38:08.511Z,19.00
2023-04-18T15:40:38.141Z,18.82
2023-04-18T15:43:06.533Z,18.66
2023-04-18T15:45:36.243Z,18.51
2023-04-18T15:48:05.536Z,18.34
2023-04-18T15:50:34.190Z,18.16
2023-04-18T15:53:02.529Z,17.99
2023-04-18T15:55:30.940Z,17.84
2023-04-18T15:57:59.177Z,17.68
2023-04-18T16:00:27.902Z,17.48
2023-04-18T16:02:56.620Z,17.24
2023-04-18T16:05:25.180Z,17.04
2023-04-18T16:07:56.414Z,16.87
2023-04-18T16:10:25.031Z,16.73
2023-04-18T16:12:53.742Z,16.61
2023-04-18T16:15:21.866Z,16.46
2023-04-18T16:17:50.123Z,16.31
2023-04-18T16:20:19.354Z,16.15
2023-04-18T16:22:48.032Z,15.97
2023-04-18T16:25:16.089Z,15.80
2023-04-18T16:27:44.485Z,15.64
2023-04-18T16:30:13.183Z,15.45
2023-04-18T16:32:41.632Z,15.25
2023-04-18T16:35:10.983Z,15.06
2023-04-18T16:37:39.716Z,14.84
2023-04-18T16:40:10.228Z,14.65
2023-04-18T16:42:38.578Z,14.49
2023-04-18T16:45:07.741Z,14.34
2023-04-18T16:47:36.711Z,14.20
2023-04-18T16:50:08.444Z,14.05
2023-04-18T16:52:36.872Z,13.90
2023-04-18T16:55:05.865Z,13.77
2023-04-18T16:57:34.146Z,13.64
2023-04-18T17:00:04.476Z,13.49
2023-04-18T17:02:33.689Z,13.37
2023-04-18T17:05:02.361Z,13.26
2023-04-18T17:07:31.203Z,13.15
2023-04-18T17:09:59.205Z,13.08
2023-04-18T17:12:27.307Z,13.01
2023-04-18T17:14:55.777Z,12.94
2023-04-18T17:17:26.746Z,12.88
2023-04-18T17:19:57.650Z,12.83
2023-04-18T17:22:26.550Z,12.77
2023-04-18T17:24:54.949Z,12.72
2023-04-18T17:27:23.483Z,12.67
2023-04-18T17:29:51.785Z,12.60
2023-04-18T17:32:20.148Z,12.56
2023-04-18T17:34:49.263Z,12.51
2023-04-18T17:37:17.468Z,12.44
2023-04-18T17:39:45.963Z,12.35
2023-04-18T17:42:14.275Z,12.26
2023-04-18T17:44:42.914Z,12.19
2023-04-18T17:47:11.341Z,12.14
2023-04-18T17:49:40.223Z,12.08
2023-04-18T17:52:08.522Z,12.01
2023-04-18T17:54:37.604Z,11.95
2023-04-18T17:57:06.388Z,11.91
2023-04-18T17:59:37.746Z,11.87
2023-04-18T18:02:06.246Z,11.80
2023-04-18T18:04:35.183Z,11.74
2023-04-18T18:07:04.542Z,11.68
2023-04-18T18:09:34.408Z,11.63
2023-04-18T18:12:03.785Z,11.57
2023-04-18T18:14:32.360Z,11.52
2023-04-18T18:17:00.864Z,11.46
2023-04-18T18:19:29.485Z,11.44
2023-04-18T18:21:57.510Z,11.41
2023-04-18T18:24:26.999Z,11.39
2023-04-18T18:26:55.192Z,11.33
2023-04-18T18:29:23.484Z,11.26
2023-04-18T18:31:51.541Z,11.19
2023-04-18T18:34:21.395Z,11.12
2023-04-18T18:36:50.899Z,11.05
2023-04-18T18:39:19.071Z,10.99
2023-04-18T18:41:47.225Z,10.94
2023-04-18T18:44:15.942Z,10.87
2023-04-18T18:46:44.194Z,10.83
2023-04-18T18:49:13.371Z,10.82
2023-04-18T18:51:41.832Z,10.78
2023-04-18T18:54:10.100Z,10.72
2023-04-18T18:56:40.181Z,10.67
2023-04-18T18:59:09.112Z,10.63
2023-04-18T19:01:38.954Z,10.58
2023-04-18T19:04:07.854Z,10.56
2023-04-18T19:06:36.444Z,10.56
2023-04-18T19:09:05.539Z,10.56
2023-04-18T19:11:34.322Z,10.57
2023-04-18T19:14:03.042Z,10.60
2023-04-18T19:16:31.359Z,10.61
2023-04-18T19:18:59.793Z,10.65
2023-04-18T19:21:28.057Z,10.71
2023-04-18T19:23:56.171Z,10.74
2023-04-18T19:26:24.465Z,10.75
2023-04-18T19:28:53.086Z,10.77
2023-04-18T19:31:21.638Z,10.79
2023-04-18T19:33:50.153Z,10.80
2023-04-18T19:36:19.167Z,10.81
2023-04-18T19:38:47.443Z,10.78
2023-04-18T19:41:15.650Z,10.76
2023-04-18T19:43:44.229Z,10.76
2023-04-18T19:46:12.511Z,10.75
2023-04-18T19:48:40.847Z,10.71
2023-04-18T19:51:09.277Z,10.68
2023-04-18T19:53:39.040Z,10.66
2023-04-18T19:56:10.878Z,10.63
2023-04-18T19:58:45.292Z,10.59
2023-04-18T20:01:14.395Z,10.58
2023-04-18T20:03:42.879Z,10.59
2023-04-18T20:06:12.829Z,10.61
2023-04-18T20:08:45.926Z,10.63
2023-04-18T20:11:15.634Z,10.64
2023-04-18T20:13:44.409Z,10.67
2023-04-18T20:16:12.541Z,10.68
2023-04-18T20:18:44.222Z,10.66
2023-04-18T20:21:12.732Z,10.63
2023-04-18T20:23:45.605Z,10.58
2023-04-18T20:26:14.170Z,10.56
2023-04-18T20:28:42.375Z,10.56
2023-04-18T20:31:11.891Z,10.56
2023-04-18T20:33:40.546Z,10.59
2023-04-18T20:36:09.014Z,10.61
2023-04-18T20:38:38.114Z,10.63
2023-04-18T20:41:06.398Z,10.64
2023-04-18T20:43:37.521Z,10.66
2023-04-18T20:46:07.066Z,10.67
2023-04-18T20:48:35.269Z,10.66
2023-04-18T20:51:03.578Z,10.67
2023-04-18T20:53:31.880Z,10.68
2023-04-18T20:56:02.421Z,10.68
2023-04-18T20:58:31.196Z,10.67
2023-04-18T21:00:59.191Z,10.63
2023-04-18T21:03:27.327Z,10.59
2023-04-18T21:05:56.238Z,10.57
2023-04-18T21:08:24.380Z,10.54
2023-04-18T21:10:53.059Z,10.50
2023-04-18T21:13:21.162Z,10.48
2023-04-18T21:15:52.170Z,10.47
2023-04-18T21:18:21.053Z,10.46
2023-04-18T21:20:49.910Z,10.45
2023-04-18T21:23:17.995Z,10.42
2023-04-18T21:25:46.022Z,10.38
2023-04-18T21:28:14.225Z,10.30
2023-04-18T21:30:42.477Z,10.24
2023-04-18T21:33:10.752Z,10.21
2023-04-18T21:35:39.031Z,10.16
2023-04-18T21:38:07.515Z,10.12
2023-04-18T21:40:35.687Z,10.11
2023-04-18T21:43:03.722Z,10.10
2023-04-18T21:45:32.105Z,10.06
2023-04-18T21:48:00.449Z,10.01
2023-04-18T21:50:29.009Z,9.99
2023-04-18T21:52:57.267Z,9.97
2023-04-18T21:55:25.534Z,9.95
2023-04-18T21:57:54.412Z,9.92
2023-04-18T22:00:22.654Z,9.91
2023-04-18T22:02:51.535Z,9.88
2023-04-18T22:05:20.509Z,9.82
2023-04-18T22:07:57.514Z,9.78
2023-04-18T22:10:26.769Z,9.76
2023-04-18T22:12:56.227Z,9.72
2023-04-18T22:15:24.668Z,9.65
2023-04-18T22:17:54.352Z,9.60
2023-04-18T22:20:23.467Z,9.55
2023-04-18T22:22:52.620Z,9.51
2023-04-18T22:25:20.556Z,9.47
2023-04-18T22:27:48.937Z,9.42
2023-04-18T22:30:17.289Z,9.37
2023-04-18T22:32:45.802Z,9.31
2023-04-18T22:35:14.049Z,9.28
2023-04-18T22:37:42.096Z,9.25
2023-04-18T22:40:10.781Z,9.20
2023-04-18T22:42:39.298Z,9.15
2023-04-18T22:45:08.344Z,9.09
2023-04-18T22:47:36.471Z,9.04
2023-04-18T22:50:05.263Z,9.00
2023-04-18T22:52:34.274Z,8.97
2023-04-18T22:55:03.012Z,8.92
2023-04-18T22:57:31.372Z,8.85
2023-04-18T22:59:59.526Z,8.77
2023-04-18T23:02:28.161Z,8.71
2023-04-18T23:04:59.055Z,8.64
2023-04-18T23:07:27.279Z,8.58
2023-04-18T23:09:55.693Z,8.52
2023-04-18T23:12:23.980Z,8.47
2023-04-18T23:14:52.239Z,8.43
2023-04-18T23:17:21.056Z,8.39
2023-04-18T23:19:49.418Z,8.36
2023-04-18T23:22:17.760Z,8.33
2023-04-18T23:24:46.044Z,8.31
2023-04-18T23:27:14.270Z,8.26
2023-04-18T23:29:42.799Z,8.21
2023-04-18T23:32:11.481Z,8.16
2023-04-18T23:34:39.497Z,8.12
2023-04-18T23:37:08.196Z,8.07
2023-04-18T23:39:36.502Z,8.04
2023-04-18T23:42:04.974Z,8.02
2023-04-18T23:44:33.284Z,8.01
2023-04-18T23:47:01.636Z,8.02
2023-04-18T23:49:30.395Z,8.00
2023-04-18T23:51:58.527Z,7.98
2023-04-18T23:54:26.721Z,7.96
2023-04-18T23:56:54.729Z,7.95
2023-04-18T23:59:23.283Z,7.92
